sensor_id;sensor_type;location;lat;lon;timestamp;P1;durP1;ratioP1;P2;durP2;ratioP2
10335;SDS011;5213;53.548;9.930;2022-12-18T00:02:20;15.13;;;10.95;;
10335;SDS011;5213;53.548;9.930;2022-12-18T00:04:46;15.13;;;11.10;;
10335;SDS011;5213;53.548;9.930;2022-12-18T00:07:12;16.60;;;10.88;;
10335;SDS011;5213;53.548;9.930;2022-12-18T00:09:39;15.77;;;11.07;;
10335;SDS011;5213;53.548;9.930;2022-12-18T00:12:05;16.50;;;10.90;;
10335;SDS011;5213;53.548;9.930;2022-12-18T00:14:31;15.27;;;11.23;;
10335;SDS011;5213;53.548;9.930;2022-12-18T00:16:57;15.35;;;10.77;;
10335;SDS011;5213;53.548;9.930;2022-12-18T00:19:25;13.10;;;9.88;;
10335;SDS011;5213;53.548;9.930;2022-12-18T00:21:51;16.30;;;10.52;;
10335;SDS011;5213;53.548;9.930;2022-12-18T00:24:17;13.95;;;10.20;;
10335;SDS011;5213;53.548;9.930;2022-12-18T00:26:43;16.88;;;11.02;;
10335;SDS011;5213;53.548;9.930;2022-12-18T00:29:10;14.80;;;11.18;;
10335;SDS011;5213;53.548;9.930;2022-12-18T00:31:38;12.98;;;9.93;;
10335;SDS011;5213;53.548;9.930;2022-12-18T00:34:04;14.50;;;10.32;;
10335;SDS011;5213;53.548;9.930;2022-12-18T00:36:31;17.20;;;11.00;;
10335;SDS011;5213;53.548;9.930;2022-12-18T00:38:59;13.50;;;10.27;;
10335;SDS011;5213;53.548;9.930;2022-12-18T00:41:26;14.23;;;10.25;;
10335;SDS011;5213;53.548;9.930;2022-12-18T00:44:11;13.52;;;9.48;;
10335;SDS011;5213;53.548;9.930;2022-12-18T00:46:38;16.50;;;10.25;;
10335;SDS011;5213;53.548;9.930;2022-12-18T00:49:04;12.80;;;9.80;;
10335;SDS011;5213;53.548;9.930;2022-12-18T00:51:30;14.85;;;10.45;;
10335;SDS011;5213;53.548;9.930;2022-12-18T00:53:57;14.57;;;10.02;;
10335;SDS011;5213;53.548;9.930;2022-12-18T00:56:23;15.52;;;10.23;;
10335;SDS011;5213;53.548;9.930;2022-12-18T00:58:49;16.83;;;10.95;;
10335;SDS011;5213;53.548;9.930;2022-12-18T01:01:15;12.63;;;9.43;;
10335;SDS011;5213;53.548;9.930;2022-12-18T01:03:42;12.73;;;9.77;;
10335;SDS011;5213;53.548;9.930;2022-12-18T01:06:10;15.68;;;10.65;;
10335;SDS011;5213;53.548;9.930;2022-12-18T01:08:37;15.75;;;10.68;;
10335;SDS011;5213;53.548;9.930;2022-12-18T01:11:07;15.27;;;10.73;;
10335;SDS011;5213;53.548;9.930;2022-12-18T01:13:34;15.05;;;10.48;;
10335;SDS011;5213;53.548;9.930;2022-12-18T01:16:00;15.05;;;10.30;;
10335;SDS011;5213;53.548;9.930;2022-12-18T01:18:26;14.83;;;10.33;;
10335;SDS011;5213;53.548;9.930;2022-12-18T01:20:52;17.70;;;10.75;;
10335;SDS011;5213;53.548;9.930;2022-12-18T01:23:18;13.55;;;10.07;;
10335;SDS011;5213;53.548;9.930;2022-12-18T01:25:44;13.35;;;9.82;;
10335;SDS011;5213;53.548;9.930;2022-12-18T01:28:10;12.85;;;9.70;;
10335;SDS011;5213;53.548;9.930;2022-12-18T01:30:36;13.48;;;9.77;;
10335;SDS011;5213;53.548;9.930;2022-12-18T01:33:04;13.80;;;9.90;;
10335;SDS011;5213;53.548;9.930;2022-12-18T01:35:30;14.93;;;10.02;;
10335;SDS011;5213;53.548;9.930;2022-12-18T01:37:56;12.80;;;9.73;;
10335;SDS011;5213;53.548;9.930;2022-12-18T01:40:22;13.68;;;9.63;;
10335;SDS011;5213;53.548;9.930;2022-12-18T01:42:52;13.55;;;9.90;;
10335;SDS011;5213;53.548;9.930;2022-12-18T01:50:15;15.77;;;9.52;;
10335;SDS011;5213;53.548;9.930;2022-12-18T01:52:46;13.68;;;10.02;;
10335;SDS011;5213;53.548;9.930;2022-12-18T01:55:14;12.95;;;9.57;;
10335;SDS011;5213;53.548;9.930;2022-12-18T01:57:40;13.80;;;9.18;;
10335;SDS011;5213;53.548;9.930;2022-12-18T02:00:09;12.55;;;9.40;;
10335;SDS011;5213;53.548;9.930;2022-12-18T02:02:35;13.25;;;9.68;;
10335;SDS011;5213;53.548;9.930;2022-12-18T02:05:02;14.13;;;10.13;;
10335;SDS011;5213;53.548;9.930;2022-12-18T02:07:42;15.63;;;9.88;;
10335;SDS011;5213;53.548;9.930;2022-12-18T02:10:14;14.02;;;9.48;;
10335;SDS011;5213;53.548;9.930;2022-12-18T02:15:36;12.98;;;9.02;;
10335;SDS011;5213;53.548;9.930;2022-12-18T02:18:08;12.73;;;8.60;;
10335;SDS011;5213;53.548;9.930;2022-12-18T02:20:36;12.52;;;8.43;;
10335;SDS011;5213;53.548;9.930;2022-12-18T02:28:02;14.00;;;9.47;;
10335;SDS011;5213;53.548;9.930;2022-12-18T02:30:30;11.87;;;8.93;;
10335;SDS011;5213;53.548;9.930;2022-12-18T02:32:57;13.55;;;8.85;;
10335;SDS011;5213;53.548;9.930;2022-12-18T02:35:25;15.20;;;9.00;;
10335;SDS011;5213;53.548;9.930;2022-12-18T02:37:53;16.88;;;9.50;;
10335;SDS011;5213;53.548;9.930;2022-12-18T02:40:19;13.20;;;9.07;;
10335;SDS011;5213;53.548;9.930;2022-12-18T02:42:46;14.55;;;9.43;;
10335;SDS011;5213;53.548;9.930;2022-12-18T02:45:12;11.80;;;8.55;;
10335;SDS011;5213;53.548;9.930;2022-12-18T02:47:39;12.77;;;8.87;;
10335;SDS011;5213;53.548;9.930;2022-12-18T02:58:05;10.50;;;8.57;;
10335;SDS011;5213;53.548;9.930;2022-12-18T03:05:35;13.18;;;9.05;;
10335;SDS011;5213;53.548;9.930;2022-12-18T03:08:03;9.05;;;7.95;;
10335;SDS011;5213;53.548;9.930;2022-12-18T03:10:32;12.77;;;9.40;;
10335;SDS011;5213;53.548;9.930;2022-12-18T03:13:02;12.40;;;8.43;;
10335;SDS011;5213;53.548;9.930;2022-12-18T03:15:37;12.27;;;8.37;;
10335;SDS011;5213;53.548;9.930;2022-12-18T03:18:05;11.83;;;8.53;;
10335;SDS011;5213;53.548;9.930;2022-12-18T03:20:34;10.70;;;8.18;;
10335;SDS011;5213;53.548;9.930;2022-12-18T03:23:02;13.87;;;9.00;;
10335;SDS011;5213;53.548;9.930;2022-12-18T03:25:30;13.40;;;9.80;;
10335;SDS011;5213;53.548;9.930;2022-12-18T03:27:58;13.98;;;8.90;;
10335;SDS011;5213;53.548;9.930;2022-12-18T03:30:25;15.07;;;8.80;;
10335;SDS011;5213;53.548;9.930;2022-12-18T03:32:53;12.57;;;8.50;;
10335;SDS011;5213;53.548;9.930;2022-12-18T03:35:25;15.93;;;9.00;;
10335;SDS011;5213;53.548;9.930;2022-12-18T03:37:52;11.07;;;8.43;;
10335;SDS011;5213;53.548;9.930;2022-12-18T03:40:20;14.27;;;9.38;;
10335;SDS011;5213;53.548;9.930;2022-12-18T03:42:52;13.80;;;9.13;;
10335;SDS011;5213;53.548;9.930;2022-12-18T03:47:53;13.43;;;8.50;;
10335;SDS011;5213;53.548;9.930;2022-12-18T03:53:11;12.02;;;8.15;;
10335;SDS011;5213;53.548;9.930;2022-12-18T03:55:40;14.37;;;8.73;;
10335;SDS011;5213;53.548;9.930;2022-12-18T03:58:06;13.03;;;8.57;;
10335;SDS011;5213;53.548;9.930;2022-12-18T04:00:33;13.13;;;8.83;;
10335;SDS011;5213;53.548;9.930;2022-12-18T04:02:59;12.00;;;7.77;;
10335;SDS011;5213;53.548;9.930;2022-12-18T04:05:26;12.17;;;8.57;;
10335;SDS011;5213;53.548;9.930;2022-12-18T04:07:53;11.73;;;8.27;;
10335;SDS011;5213;53.548;9.930;2022-12-18T04:10:20;10.63;;;8.23;;
10335;SDS011;5213;53.548;9.930;2022-12-18T04:12:46;10.75;;;7.65;;
10335;SDS011;5213;53.548;9.930;2022-12-18T04:15:13;11.43;;;8.40;;
10335;SDS011;5213;53.548;9.930;2022-12-18T04:17:39;12.53;;;8.43;;
10335;SDS011;5213;53.548;9.930;2022-12-18T04:20:07;11.90;;;8.27;;
10335;SDS011;5213;53.548;9.930;2022-12-18T04:22:34;9.70;;;7.57;;
10335;SDS011;5213;53.548;9.930;2022-12-18T04:25:00;11.53;;;8.13;;
10335;SDS011;5213;53.548;9.930;2022-12-18T04:27:26;13.27;;;8.40;;
10335;SDS011;5213;53.548;9.930;2022-12-18T04:29:52;11.32;;;7.88;;
10335;SDS011;5213;53.548;9.930;2022-12-18T04:32:18;11.68;;;8.07;;
10335;SDS011;5213;53.548;9.930;2022-12-18T04:34:44;9.07;;;7.45;;
10335;SDS011;5213;53.548;9.930;2022-12-18T04:37:10;11.68;;;7.95;;
10335;SDS011;5213;53.548;9.930;2022-12-18T04:39:36;11.93;;;7.57;;
10335;SDS011;5213;53.548;9.930;2022-12-18T04:42:02;9.97;;;7.67;;
10335;SDS011;5213;53.548;9.930;2022-12-18T04:44:28;11.73;;;8.00;;
10335;SDS011;5213;53.548;9.930;2022-12-18T04:46:54;9.53;;;8.10;;
10335;SDS011;5213;53.548;9.930;2022-12-18T04:49:20;11.85;;;8.25;;
10335;SDS011;5213;53.548;9.930;2022-12-18T04:51:46;10.35;;;8.02;;
10335;SDS011;5213;53.548;9.930;2022-12-18T04:54:12;10.68;;;7.43;;
10335;SDS011;5213;53.548;9.930;2022-12-18T04:56:38;12.57;;;8.18;;
10335;SDS011;5213;53.548;9.930;2022-12-18T04:59:05;10.43;;;7.63;;
10335;SDS011;5213;53.548;9.930;2022-12-18T05:01:31;11.37;;;7.93;;
10335;SDS011;5213;53.548;9.930;2022-12-18T05:03:57;12.83;;;8.63;;
10335;SDS011;5213;53.548;9.930;2022-12-18T05:06:23;10.00;;;7.47;;
10335;SDS011;5213;53.548;9.930;2022-12-18T05:08:49;14.17;;;8.70;;
10335;SDS011;5213;53.548;9.930;2022-12-18T05:11:15;12.45;;;8.07;;
10335;SDS011;5213;53.548;9.930;2022-12-18T05:13:41;12.95;;;9.13;;
10335;SDS011;5213;53.548;9.930;2022-12-18T05:16:07;11.37;;;9.37;;
10335;SDS011;5213;53.548;9.930;2022-12-18T05:18:34;12.23;;;10.30;;
10335;SDS011;5213;53.548;9.930;2022-12-18T05:21:00;14.30;;;9.97;;
10335;SDS011;5213;53.548;9.930;2022-12-18T05:23:26;12.40;;;9.40;;
10335;SDS011;5213;53.548;9.930;2022-12-18T05:28:18;13.40;;;9.02;;
10335;SDS011;5213;53.548;9.930;2022-12-18T05:30:51;13.20;;;9.87;;
10335;SDS011;5213;53.548;9.930;2022-12-18T05:33:18;11.18;;;9.15;;
10335;SDS011;5213;53.548;9.930;2022-12-18T05:35:44;11.37;;;9.50;;
10335;SDS011;5213;53.548;9.930;2022-12-18T05:38:10;11.80;;;9.37;;
10335;SDS011;5213;53.548;9.930;2022-12-18T05:40:36;14.17;;;8.93;;
10335;SDS011;5213;53.548;9.930;2022-12-18T05:43:05;11.83;;;8.40;;
10335;SDS011;5213;53.548;9.930;2022-12-18T05:45:31;16.13;;;9.10;;
10335;SDS011;5213;53.548;9.930;2022-12-18T05:47:57;11.70;;;9.50;;
10335;SDS011;5213;53.548;9.930;2022-12-18T05:50:23;12.10;;;8.77;;
10335;SDS011;5213;53.548;9.930;2022-12-18T05:52:50;10.03;;;8.07;;
10335;SDS011;5213;53.548;9.930;2022-12-18T05:55:16;11.57;;;8.13;;
10335;SDS011;5213;53.548;9.930;2022-12-18T05:57:42;12.13;;;9.10;;
10335;SDS011;5213;53.548;9.930;2022-12-18T06:00:08;13.47;;;8.40;;
10335;SDS011;5213;53.548;9.930;2022-12-18T06:02:34;10.33;;;8.53;;
10335;SDS011;5213;53.548;9.930;2022-12-18T06:05:00;10.37;;;8.00;;
10335;SDS011;5213;53.548;9.930;2022-12-18T06:07:26;11.47;;;9.00;;
10335;SDS011;5213;53.548;9.930;2022-12-18T06:09:52;12.73;;;9.20;;
10335;SDS011;5213;53.548;9.930;2022-12-18T06:12:18;10.80;;;8.50;;
10335;SDS011;5213;53.548;9.930;2022-12-18T06:14:44;10.13;;;8.23;;
10335;SDS011;5213;53.548;9.930;2022-12-18T06:17:10;11.17;;;8.70;;
10335;SDS011;5213;53.548;9.930;2022-12-18T06:19:36;12.10;;;8.23;;
10335;SDS011;5213;53.548;9.930;2022-12-18T06:22:03;12.40;;;8.50;;
10335;SDS011;5213;53.548;9.930;2022-12-18T06:24:29;12.00;;;8.77;;
10335;SDS011;5213;53.548;9.930;2022-12-18T06:26:55;10.20;;;8.23;;
10335;SDS011;5213;53.548;9.930;2022-12-18T06:29:21;9.90;;;8.40;;
10335;SDS011;5213;53.548;9.930;2022-12-18T06:31:47;10.67;;;7.40;;
10335;SDS011;5213;53.548;9.930;2022-12-18T06:34:13;10.77;;;8.27;;
10335;SDS011;5213;53.548;9.930;2022-12-18T06:36:39;11.53;;;8.20;;
10335;SDS011;5213;53.548;9.930;2022-12-18T06:39:05;12.23;;;8.00;;
10335;SDS011;5213;53.548;9.930;2022-12-18T06:41:31;13.40;;;8.47;;
10335;SDS011;5213;53.548;9.930;2022-12-18T06:43:57;10.97;;;7.63;;
10335;SDS011;5213;53.548;9.930;2022-12-18T06:46:23;11.37;;;7.80;;
10335;SDS011;5213;53.548;9.930;2022-12-18T06:48:49;9.93;;;7.67;;
10335;SDS011;5213;53.548;9.930;2022-12-18T06:51:17;12.73;;;7.50;;
10335;SDS011;5213;53.548;9.930;2022-12-18T06:53:43;11.63;;;7.77;;
10335;SDS011;5213;53.548;9.930;2022-12-18T06:56:09;9.40;;;7.47;;
10335;SDS011;5213;53.548;9.930;2022-12-18T06:58:35;10.30;;;7.40;;
10335;SDS011;5213;53.548;9.930;2022-12-18T07:01:01;13.43;;;8.43;;
10335;SDS011;5213;53.548;9.930;2022-12-18T07:03:27;11.10;;;7.90;;
10335;SDS011;5213;53.548;9.930;2022-12-18T07:05:53;10.53;;;7.97;;
10335;SDS011;5213;53.548;9.930;2022-12-18T07:08:19;10.47;;;7.30;;
10335;SDS011;5213;53.548;9.930;2022-12-18T07:10:46;10.90;;;7.27;;
10335;SDS011;5213;53.548;9.930;2022-12-18T07:13:14;10.90;;;8.13;;
10335;SDS011;5213;53.548;9.930;2022-12-18T07:15:40;11.37;;;7.27;;
10335;SDS011;5213;53.548;9.930;2022-12-18T07:18:06;10.57;;;8.27;;
10335;SDS011;5213;53.548;9.930;2022-12-18T07:20:32;11.67;;;8.10;;
10335;SDS011;5213;53.548;9.930;2022-12-18T07:22:58;12.83;;;8.57;;
10335;SDS011;5213;53.548;9.930;2022-12-18T07:25:24;12.77;;;8.80;;
10335;SDS011;5213;53.548;9.930;2022-12-18T07:27:52;22.00;;;13.57;;
10335;SDS011;5213;53.548;9.930;2022-12-18T07:30:18;12.73;;;8.50;;
10335;SDS011;5213;53.548;9.930;2022-12-18T07:32:44;11.77;;;8.07;;
10335;SDS011;5213;53.548;9.930;2022-12-18T07:35:10;11.57;;;8.57;;
10335;SDS011;5213;53.548;9.930;2022-12-18T07:37:36;11.60;;;8.00;;
10335;SDS011;5213;53.548;9.930;2022-12-18T07:40:02;11.33;;;8.03;;
10335;SDS011;5213;53.548;9.930;2022-12-18T07:42:28;10.67;;;8.40;;
10335;SDS011;5213;53.548;9.930;2022-12-18T07:45:00;10.57;;;8.00;;
10335;SDS011;5213;53.548;9.930;2022-12-18T07:47:27;11.57;;;8.30;;
10335;SDS011;5213;53.548;9.930;2022-12-18T07:49:53;12.03;;;8.40;;
10335;SDS011;5213;53.548;9.930;2022-12-18T07:52:19;11.10;;;8.40;;
10335;SDS011;5213;53.548;9.930;2022-12-18T07:54:45;9.37;;;7.70;;
10335;SDS011;5213;53.548;9.930;2022-12-18T07:57:17;11.70;;;7.83;;
10335;SDS011;5213;53.548;9.930;2022-12-18T07:59:43;12.10;;;8.27;;
10335;SDS011;5213;53.548;9.930;2022-12-18T08:02:09;11.03;;;8.20;;
10335;SDS011;5213;53.548;9.930;2022-12-18T08:04:35;10.50;;;7.90;;
10335;SDS011;5213;53.548;9.930;2022-12-18T08:07:01;11.50;;;8.60;;
10335;SDS011;5213;53.548;9.930;2022-12-18T08:09:27;10.87;;;7.27;;
10335;SDS011;5213;53.548;9.930;2022-12-18T08:11:53;12.97;;;8.33;;
10335;SDS011;5213;53.548;9.930;2022-12-18T08:14:19;11.33;;;8.00;;
10335;SDS011;5213;53.548;9.930;2022-12-18T08:16:45;10.77;;;7.63;;
10335;SDS011;5213;53.548;9.930;2022-12-18T08:19:11;11.37;;;8.90;;
10335;SDS011;5213;53.548;9.930;2022-12-18T08:21:40;11.43;;;8.80;;
10335;SDS011;5213;53.548;9.930;2022-12-18T08:24:08;10.03;;;7.93;;
10335;SDS011;5213;53.548;9.930;2022-12-18T08:26:35;12.87;;;9.17;;
10335;SDS011;5213;53.548;9.930;2022-12-18T08:29:01;10.33;;;8.10;;
10335;SDS011;5213;53.548;9.930;2022-12-18T08:31:27;10.40;;;8.23;;
10335;SDS011;5213;53.548;9.930;2022-12-18T08:33:54;11.17;;;7.53;;
10335;SDS011;5213;53.548;9.930;2022-12-18T08:36:21;11.23;;;8.03;;
10335;SDS011;5213;53.548;9.930;2022-12-18T08:38:47;11.07;;;8.13;;
10335;SDS011;5213;53.548;9.930;2022-12-18T08:41:14;10.00;;;7.80;;
10335;SDS011;5213;53.548;9.930;2022-12-18T08:43:40;10.53;;;7.77;;
10335;SDS011;5213;53.548;9.930;2022-12-18T08:46:26;12.40;;;7.97;;
10335;SDS011;5213;53.548;9.930;2022-12-18T08:48:53;10.43;;;7.70;;
10335;SDS011;5213;53.548;9.930;2022-12-18T08:51:22;14.23;;;8.17;;
10335;SDS011;5213;53.548;9.930;2022-12-18T08:53:49;9.57;;;7.27;;
10335;SDS011;5213;53.548;9.930;2022-12-18T08:56:15;10.67;;;7.70;;
10335;SDS011;5213;53.548;9.930;2022-12-18T08:58:41;12.27;;;8.00;;
10335;SDS011;5213;53.548;9.930;2022-12-18T09:01:07;10.03;;;7.57;;
10335;SDS011;5213;53.548;9.930;2022-12-18T09:03:34;8.87;;;6.80;;
10335;SDS011;5213;53.548;9.930;2022-12-18T09:06:01;9.83;;;7.73;;
10335;SDS011;5213;53.548;9.930;2022-12-18T09:08:27;9.03;;;7.60;;
10335;SDS011;5213;53.548;9.930;2022-12-18T09:10:53;10.67;;;7.23;;
10335;SDS011;5213;53.548;9.930;2022-12-18T09:13:20;9.77;;;7.07;;
10335;SDS011;5213;53.548;9.930;2022-12-18T09:15:47;9.37;;;7.07;;
10335;SDS011;5213;53.548;9.930;2022-12-18T09:18:14;9.03;;;7.50;;
10335;SDS011;5213;53.548;9.930;2022-12-18T09:20:41;9.90;;;7.50;;
10335;SDS011;5213;53.548;9.930;2022-12-18T09:23:07;10.00;;;7.17;;
10335;SDS011;5213;53.548;9.930;2022-12-18T09:25:34;9.77;;;8.07;;
10335;SDS011;5213;53.548;9.930;2022-12-18T09:28:01;10.00;;;7.37;;
10335;SDS011;5213;53.548;9.930;2022-12-18T09:30:27;9.47;;;7.10;;
10335;SDS011;5213;53.548;9.930;2022-12-18T09:32:53;11.20;;;7.57;;
10335;SDS011;5213;53.548;9.930;2022-12-18T09:35:19;10.77;;;7.03;;
10335;SDS011;5213;53.548;9.930;2022-12-18T09:37:45;11.20;;;7.47;;
10335;SDS011;5213;53.548;9.930;2022-12-18T09:40:16;9.20;;;6.80;;
10335;SDS011;5213;53.548;9.930;2022-12-18T09:42:44;9.30;;;7.43;;
10335;SDS011;5213;53.548;9.930;2022-12-18T09:45:12;9.80;;;7.63;;
10335;SDS011;5213;53.548;9.930;2022-12-18T09:47:39;10.30;;;7.47;;
10335;SDS011;5213;53.548;9.930;2022-12-18T09:50:27;9.47;;;7.07;;
10335;SDS011;5213;53.548;9.930;2022-12-18T09:52:54;8.17;;;6.90;;
10335;SDS011;5213;53.548;9.930;2022-12-18T09:55:34;10.10;;;7.60;;
10335;SDS011;5213;53.548;9.930;2022-12-18T09:58:04;11.93;;;7.70;;
10335;SDS011;5213;53.548;9.930;2022-12-18T10:00:32;10.03;;;8.10;;
10335;SDS011;5213;53.548;9.930;2022-12-18T10:02:59;8.87;;;6.87;;
10335;SDS011;5213;53.548;9.930;2022-12-18T10:08:07;9.40;;;7.40;;
10335;SDS011;5213;53.548;9.930;2022-12-18T10:15:58;11.03;;;7.73;;
10335;SDS011;5213;53.548;9.930;2022-12-18T10:21:03;11.97;;;7.10;;
10335;SDS011;5213;53.548;9.930;2022-12-18T10:28:25;8.93;;;7.13;;
10335;SDS011;5213;53.548;9.930;2022-12-18T10:30:52;11.15;;;7.93;;
10335;SDS011;5213;53.548;9.930;2022-12-18T10:33:19;9.23;;;7.70;;
10335;SDS011;5213;53.548;9.930;2022-12-18T10:35:46;9.35;;;7.80;;
10335;SDS011;5213;53.548;9.930;2022-12-18T10:40:55;10.77;;;8.10;;
10335;SDS011;5213;53.548;9.930;2022-12-18T10:43:29;10.32;;;8.32;;
10335;SDS011;5213;53.548;9.930;2022-12-18T10:48:28;12.23;;;8.43;;
10335;SDS011;5213;53.548;9.930;2022-12-18T10:50:55;10.00;;;7.80;;
10335;SDS011;5213;53.548;9.930;2022-12-18T10:53:23;10.70;;;7.63;;
10335;SDS011;5213;53.548;9.930;2022-12-18T10:55:50;12.23;;;8.20;;
10335;SDS011;5213;53.548;9.930;2022-12-18T10:58:22;10.68;;;8.73;;
10335;SDS011;5213;53.548;9.930;2022-12-18T11:06:13;11.18;;;8.63;;
10335;SDS011;5213;53.548;9.930;2022-12-18T11:08:39;10.50;;;8.60;;
10335;SDS011;5213;53.548;9.930;2022-12-18T11:11:19;11.90;;;9.23;;
10335;SDS011;5213;53.548;9.930;2022-12-18T11:13:51;11.30;;;8.65;;
10335;SDS011;5213;53.548;9.930;2022-12-18T11:16:20;13.50;;;8.97;;
10335;SDS011;5213;53.548;9.930;2022-12-18T11:18:46;13.00;;;8.80;;
10335;SDS011;5213;53.548;9.930;2022-12-18T11:21:13;12.10;;;8.25;;
10335;SDS011;5213;53.548;9.930;2022-12-18T11:23:52;13.02;;;9.02;;
10335;SDS011;5213;53.548;9.930;2022-12-18T11:26:19;11.02;;;8.77;;
10335;SDS011;5213;53.548;9.930;2022-12-18T11:28:47;11.73;;;8.87;;
10335;SDS011;5213;53.548;9.930;2022-12-18T11:33:42;13.25;;;9.10;;
10335;SDS011;5213;53.548;9.930;2022-12-18T11:36:10;10.50;;;8.50;;
10335;SDS011;5213;53.548;9.930;2022-12-18T11:41:09;11.85;;;9.18;;
10335;SDS011;5213;53.548;9.930;2022-12-18T11:43:41;11.77;;;9.07;;
10335;SDS011;5213;53.548;9.930;2022-12-18T11:46:11;11.55;;;9.02;;
10335;SDS011;5213;53.548;9.930;2022-12-18T11:48:43;13.25;;;9.10;;
10335;SDS011;5213;53.548;9.930;2022-12-18T11:51:11;11.98;;;8.95;;
10335;SDS011;5213;53.548;9.930;2022-12-18T11:53:39;12.98;;;9.40;;
10335;SDS011;5213;53.548;9.930;2022-12-18T11:58:46;12.70;;;9.38;;
10335;SDS011;5213;53.548;9.930;2022-12-18T12:01:55;14.20;;;10.13;;
10335;SDS011;5213;53.548;9.930;2022-12-18T12:09:03;13.00;;;9.40;;
10335;SDS011;5213;53.548;9.930;2022-12-18T12:16:48;12.20;;;9.27;;
10335;SDS011;5213;53.548;9.930;2022-12-18T12:19:27;13.93;;;9.80;;
10335;SDS011;5213;53.548;9.930;2022-12-18T12:22:21;12.57;;;8.82;;
10335;SDS011;5213;53.548;9.930;2022-12-18T12:40:12;15.20;;;10.63;;
10335;SDS011;5213;53.548;9.930;2022-12-18T12:42:41;15.45;;;9.40;;
10335;SDS011;5213;53.548;9.930;2022-12-18T12:45:34;11.82;;;8.48;;
10335;SDS011;5213;53.548;9.930;2022-12-18T12:48:01;14.00;;;8.82;;
10335;SDS011;5213;53.548;9.930;2022-12-18T12:50:28;10.80;;;8.50;;
10335;SDS011;5213;53.548;9.930;2022-12-18T12:52:59;12.27;;;8.68;;
10335;SDS011;5213;53.548;9.930;2022-12-18T12:55:27;11.95;;;8.55;;
10335;SDS011;5213;53.548;9.930;2022-12-18T13:00:26;10.82;;;8.45;;
10335;SDS011;5213;53.548;9.930;2022-12-18T13:03:08;11.68;;;8.40;;
10335;SDS011;5213;53.548;9.930;2022-12-18T13:06:12;12.30;;;8.32;;
10335;SDS011;5213;53.548;9.930;2022-12-18T13:08:31;12.55;;;8.23;;
10335;SDS011;5213;53.548;9.930;2022-12-18T13:10:57;14.27;;;9.93;;
10335;SDS011;5213;53.548;9.930;2022-12-18T13:13:49;12.30;;;8.93;;
10335;SDS011;5213;53.548;9.930;2022-12-18T13:16:18;12.90;;;9.57;;
10335;SDS011;5213;53.548;9.930;2022-12-18T13:18:51;12.82;;;9.45;;
10335;SDS011;5213;53.548;9.930;2022-12-18T13:21:29;14.32;;;9.38;;
10335;SDS011;5213;53.548;9.930;2022-12-18T13:23:56;13.13;;;9.50;;
10335;SDS011;5213;53.548;9.930;2022-12-18T13:32:00;14.30;;;9.85;;
10335;SDS011;5213;53.548;9.930;2022-12-18T13:34:20;14.52;;;9.85;;
10335;SDS011;5213;53.548;9.930;2022-12-18T13:36:47;16.17;;;10.25;;
10335;SDS011;5213;53.548;9.930;2022-12-18T13:41:39;17.85;;;11.02;;
10335;SDS011;5213;53.548;9.930;2022-12-18T13:46:51;15.60;;;9.68;;
10335;SDS011;5213;53.548;9.930;2022-12-18T13:52:03;17.40;;;10.98;;
10335;SDS011;5213;53.548;9.930;2022-12-18T13:54:40;17.63;;;11.07;;
10335;SDS011;5213;53.548;9.930;2022-12-18T13:59:52;21.73;;;12.80;;
10335;SDS011;5213;53.548;9.930;2022-12-18T14:02:21;18.07;;;12.00;;
10335;SDS011;5213;53.548;9.930;2022-12-18T14:04:48;15.53;;;11.00;;
10335;SDS011;5213;53.548;9.930;2022-12-18T14:07:15;18.40;;;11.05;;
10335;SDS011;5213;53.548;9.930;2022-12-18T14:09:46;20.97;;;12.47;;
10335;SDS011;5213;53.548;9.930;2022-12-18T14:12:20;17.57;;;10.67;;
10335;SDS011;5213;53.548;9.930;2022-12-18T14:15:06;19.33;;;10.43;;
10335;SDS011;5213;53.548;9.930;2022-12-18T14:17:36;14.77;;;9.60;;
10335;SDS011;5213;53.548;9.930;2022-12-18T14:20:02;17.30;;;10.57;;
10335;SDS011;5213;53.548;9.930;2022-12-18T14:22:28;17.10;;;11.40;;
10335;SDS011;5213;53.548;9.930;2022-12-18T14:28:08;22.17;;;11.53;;
10335;SDS011;5213;53.548;9.930;2022-12-18T14:30:38;15.17;;;10.20;;
10335;SDS011;5213;53.548;9.930;2022-12-18T14:35:35;18.02;;;10.80;;
10335;SDS011;5213;53.548;9.930;2022-12-18T14:40:47;17.40;;;10.80;;
10335;SDS011;5213;53.548;9.930;2022-12-18T14:43:13;20.00;;;11.20;;
10335;SDS011;5213;53.548;9.930;2022-12-18T14:45:42;17.43;;;11.07;;
10335;SDS011;5213;53.548;9.930;2022-12-18T14:48:13;19.67;;;11.17;;
10335;SDS011;5213;53.548;9.930;2022-12-18T14:50:41;18.57;;;10.37;;
10335;SDS011;5213;53.548;9.930;2022-12-18T14:53:17;16.50;;;10.20;;
10335;SDS011;5213;53.548;9.930;2022-12-18T14:55:45;20.40;;;11.50;;
10335;SDS011;5213;53.548;9.930;2022-12-18T14:58:12;18.93;;;10.73;;
10335;SDS011;5213;53.548;9.930;2022-12-18T15:00:41;21.43;;;12.00;;
10335;SDS011;5213;53.548;9.930;2022-12-18T15:03:17;20.63;;;11.30;;
10335;SDS011;5213;53.548;9.930;2022-12-18T15:05:44;19.70;;;11.40;;
10335;SDS011;5213;53.548;9.930;2022-12-18T15:08:30;22.30;;;12.07;;
10335;SDS011;5213;53.548;9.930;2022-12-18T15:10:56;19.23;;;11.97;;
10335;SDS011;5213;53.548;9.930;2022-12-18T15:13:23;20.60;;;11.47;;
10335;SDS011;5213;53.548;9.930;2022-12-18T15:15:50;21.60;;;12.40;;
10335;SDS011;5213;53.548;9.930;2022-12-18T15:18:20;21.33;;;12.60;;
10335;SDS011;5213;53.548;9.930;2022-12-18T15:20:49;25.17;;;13.47;;
10335;SDS011;5213;53.548;9.930;2022-12-18T15:25:48;19.87;;;11.17;;
10335;SDS011;5213;53.548;9.930;2022-12-18T15:28:19;20.20;;;11.63;;
10335;SDS011;5213;53.548;9.930;2022-12-18T15:30:57;22.37;;;13.10;;
10335;SDS011;5213;53.548;9.930;2022-12-18T15:33:24;19.73;;;12.33;;
10335;SDS011;5213;53.548;9.930;2022-12-18T15:35:57;23.10;;;13.37;;
10335;SDS011;5213;53.548;9.930;2022-12-18T15:38:23;20.17;;;12.23;;
10335;SDS011;5213;53.548;9.930;2022-12-18T15:40:50;23.63;;;13.43;;
10335;SDS011;5213;53.548;9.930;2022-12-18T15:43:21;23.77;;;13.33;;
10335;SDS011;5213;53.548;9.930;2022-12-18T15:46:04;19.83;;;12.33;;
10335;SDS011;5213;53.548;9.930;2022-12-18T15:48:32;23.37;;;13.73;;
10335;SDS011;5213;53.548;9.930;2022-12-18T15:50:58;29.37;;;13.73;;
10335;SDS011;5213;53.548;9.930;2022-12-18T15:53:25;21.57;;;13.00;;
10335;SDS011;5213;53.548;9.930;2022-12-18T15:55:51;21.43;;;12.10;;
10335;SDS011;5213;53.548;9.930;2022-12-18T15:58:36;22.47;;;12.30;;
10335;SDS011;5213;53.548;9.930;2022-12-18T16:01:02;23.33;;;12.80;;
10335;SDS011;5213;53.548;9.930;2022-12-18T16:03:28;22.30;;;12.47;;
10335;SDS011;5213;53.548;9.930;2022-12-18T16:05:54;19.80;;;12.13;;
10335;SDS011;5213;53.548;9.930;2022-12-18T16:08:23;22.70;;;12.60;;
10335;SDS011;5213;53.548;9.930;2022-12-18T16:10:49;23.77;;;12.30;;
10335;SDS011;5213;53.548;9.930;2022-12-18T16:13:15;20.57;;;11.97;;
10335;SDS011;5213;53.548;9.930;2022-12-18T16:15:42;21.40;;;12.60;;
10335;SDS011;5213;53.548;9.930;2022-12-18T16:18:08;20.37;;;11.73;;
10335;SDS011;5213;53.548;9.930;2022-12-18T16:20:34;23.87;;;12.80;;
10335;SDS011;5213;53.548;9.930;2022-12-18T16:23:00;25.43;;;13.10;;
10335;SDS011;5213;53.548;9.930;2022-12-18T16:25:27;18.77;;;11.40;;
10335;SDS011;5213;53.548;9.930;2022-12-18T16:27:53;22.37;;;12.10;;
10335;SDS011;5213;53.548;9.930;2022-12-18T16:30:24;20.17;;;12.07;;
10335;SDS011;5213;53.548;9.930;2022-12-18T16:32:52;23.23;;;11.40;;
10335;SDS011;5213;53.548;9.930;2022-12-18T16:35:18;19.03;;;11.30;;
10335;SDS011;5213;53.548;9.930;2022-12-18T16:37:44;18.60;;;10.80;;
10335;SDS011;5213;53.548;9.930;2022-12-18T16:40:11;19.10;;;11.10;;
10335;SDS011;5213;53.548;9.930;2022-12-18T16:42:39;19.47;;;11.60;;
10335;SDS011;5213;53.548;9.930;2022-12-18T16:45:06;20.13;;;11.30;;
10335;SDS011;5213;53.548;9.930;2022-12-18T16:47:32;17.80;;;10.77;;
10335;SDS011;5213;53.548;9.930;2022-12-18T16:49:58;20.00;;;11.27;;
10335;SDS011;5213;53.548;9.930;2022-12-18T16:52:24;22.07;;;12.53;;
10335;SDS011;5213;53.548;9.930;2022-12-18T16:54:50;19.37;;;11.97;;